Time;durP1;ratioP1;P1;durP2;ratioP2;P2;SDS_P1;SDS_P2;PMS_P1;PMS_P2;Temp;Humidity;BMP_temperature;BMP_pressure;BME280_temperature;BME280_humidity;BME280_pressure;Samples;Min_cycle;Max_cycle;Signal;HPM_P1;HPM_P2
2022/04/28 00:00:36;;;;;;;4.22;3.83;;;15.70;99.90;;;;;;5012221;28;20691;-80
2022/04/28 00:03:04;;;;;;;5.63;3.60;;;15.70;99.90;;;;;;5011667;28;20259;-80
2022/04/28 00:05:31;;;;;;;6.72;3.65;;;15.60;99.90;;;;;;5010674;28;20208;-78
2022/04/28 00:07:58;;;;;;;6.90;3.17;;;15.60;99.90;;;;;;5011113;28;20314;-77
2022/04/28 00:10:25;;;;;;;5.15;2.97;;;15.50;99.90;;;;;;5011482;28;20218;-84
2022/04/28 00:12:52;;;;;;;4.78;3.72;;;15.50;99.90;;;;;;5012187;28;20259;-83
2022/04/28 00:15:20;;;;;;;6.88;4.00;;;15.50;99.90;;;;;;5009214;28;20648;-84
2022/04/28 00:17:48;;;;;;;4.70;4.28;;;15.40;99.90;;;;;;5010366;28;20590;-74
2022/04/28 00:20:16;;;;;;;3.67;3.33;;;15.50;99.90;;;;;;5010930;28;20227;-76
2022/04/28 00:22:43;;;;;;;6.07;3.95;;;15.40;99.90;;;;;;5012142;28;20215;-78
2022/04/28 00:25:10;;;;;;;5.00;3.97;;;15.40;99.90;;;;;;5012277;28;20283;-81
2022/04/28 00:27:38;;;;;;;4.68;4.00;;;15.30;99.90;;;;;;5011507;28;20206;-79
2022/04/28 00:30:07;;;;;;;5.95;4.10;;;15.30;99.90;;;;;;5011881;28;20668;-79
2022/04/28 00:32:34;;;;;;;6.50;3.70;;;15.30;99.90;;;;;;5011301;28;20254;-78
2022/04/28 00:35:04;;;;;;;6.97;3.50;;;15.30;99.90;;;;;;5012239;28;20683;-84
2022/04/28 00:37:31;;;;;;;6.00;3.78;;;15.20;99.90;;;;;;5011955;28;20204;-81
2022/04/28 00:39:58;;;;;;;4.22;3.47;;;15.20;99.90;;;;;;5012417;28;20204;-83
2022/04/28 00:42:25;;;;;;;6.65;4.00;;;15.10;99.90;;;;;;5012582;28;20208;-82
2022/04/28 00:44:53;;;;;;;3.70;3.05;;;15.10;99.90;;;;;;5012213;28;20693;-81
2022/04/28 00:47:22;;;;;;;4.95;3.00;;;15.10;99.90;;;;;;5011109;28;20206;-80
2022/04/28 00:52:35;;;;;;;5.15;3.47;;;14.90;99.90;;;;;;5004715;28;20753;-78
2022/04/28 00:55:03;;;;;;;6.20;3.20;;;14.90;99.90;;;;;;5011033;28;20238;-79
2022/04/28 00:57:34;;;;;;;4.65;3.38;;;14.90;99.90;;;;;;4999835;28;20209;-78
2022/04/28 01:00:01;;;;;;;5.50;3.30;;;14.90;99.90;;;;;;4999996;28;20204;-79
2022/04/28 01:02:28;;;;;;;5.18;3.95;;;14.90;99.90;;;;;;5011054;28;20299;-81
2022/04/28 01:04:55;;;;;;;10.48;5.22;;;15.00;99.90;;;;;;5011194;28;20211;-77
2022/04/28 01:07:23;;;;;;;4.80;3.95;;;15.00;99.90;;;;;;5011112;28;20654;-80
2022/04/28 01:09:51;;;;;;;6.90;4.53;;;15.10;99.90;;;;;;5011757;28;20291;-81
2022/04/28 01:12:19;;;;;;;4.82;3.85;;;15.10;99.90;;;;;;5010713;28;20291;-76
2022/04/28 01:14:46;;;;;;;5.40;3.28;;;15.20;99.90;;;;;;5003668;28;20203;-80
2022/04/28 01:17:15;;;;;;;4.13;3.03;;;15.30;99.90;;;;;;5010966;28;20207;-78
2022/04/28 01:19:42;;;;;;;6.40;3.42;;;15.30;99.90;;;;;;5009520;28;20207;-79
2022/04/28 01:22:10;;;;;;;6.47;3.33;;;15.30;99.90;;;;;;5011504;28;20283;-79
2022/04/28 01:24:38;;;;;;;4.97;3.38;;;15.30;99.90;;;;;;5010369;28;20210;-78
2022/04/28 01:27:06;;;;;;;7.05;3.42;;;15.30;99.90;;;;;;5011029;28;20207;-78
2022/04/28 01:29:34;;;;;;;6.60;3.85;;;15.30;99.90;;;;;;5010656;28;20200;-79
2022/04/28 01:32:02;;;;;;;3.92;3.58;;;15.30;99.90;;;;;;5010701;28;20210;-80
2022/04/28 01:34:29;;;;;;;4.93;3.17;;;15.30;99.90;;;;;;5010511;28;20293;-80
2022/04/28 01:36:56;;;;;;;5.35;3.50;;;15.30;99.90;;;;;;5010770;28;20211;-80
2022/04/28 01:39:25;;;;;;;8.35;3.78;;;15.30;99.90;;;;;;5008154;28;20200;-80
2022/04/28 01:41:52;;;;;;;6.38;3.55;;;15.30;99.90;;;;;;5000355;28;20214;-78
2022/04/28 01:44:20;;;;;;;7.30;3.58;;;15.20;99.90;;;;;;5010151;28;20210;-80
2022/04/28 01:46:47;;;;;;;7.47;4.18;;;15.30;99.90;;;;;;5010598;28;20210;-80
2022/04/28 01:49:14;;;;;;;6.82;3.63;;;15.30;99.90;;;;;;5010909;28;20214;-81
2022/04/28 01:57:12;;;;;;;5.70;4.05;;;15.30;99.90;;;;;;5002552;28;20255;-78
2022/04/28 01:59:40;;;;;;;7.53;3.30;;;15.30;99.90;;;;;;5010657;28;20204;-80
2022/04/28 02:02:07;;;;;;;4.13;3.53;;;15.30;99.90;;;;;;5010798;28;20645;-79
2022/04/28 02:04:34;;;;;;;4.88;3.60;;;15.30;99.90;;;;;;5002559;28;20214;-79
2022/04/28 02:07:01;;;;;;;7.68;4.13;;;15.40;99.90;;;;;;5010753;28;20246;-79
2022/04/28 02:09:30;;;;;;;4.50;3.78;;;15.40;99.90;;;;;;5009695;28;20672;-79
2022/04/28 02:11:57;;;;;;;5.32;2.80;;;15.40;99.90;;;;;;5010424;28;20205;-78
2022/04/28 02:14:24;;;;;;;4.35;2.88;;;15.40;99.90;;;;;;5010158;28;20599;-81
2022/04/28 02:16:52;;;;;;;4.10;3.70;;;15.40;99.90;;;;;;5006657;28;20291;-81
2022/04/28 02:19:19;;;;;;;3.78;3.33;;;15.30;99.90;;;;;;5006512;28;20214;-81
2022/04/28 02:21:46;;;;;;;4.97;3.88;;;15.40;99.90;;;;;;5010079;28;20205;-82
2022/04/28 02:24:13;;;;;;;3.60;2.78;;;15.40;99.90;;;;;;5010632;28;20767;-77
2022/04/28 02:26:42;;;;;;;4.30;2.83;;;15.40;99.90;;;;;;5010088;28;20204;-81
2022/04/28 02:29:09;;;;;;;7.10;4.18;;;15.40;99.90;;;;;;5010696;28;20292;-78
2022/04/28 02:31:36;;;;;;;6.40;5.03;;;15.40;99.90;;;;;;5009654;28;20204;-81
2022/04/28 02:34:03;;;;;;;4.30;3.55;;;15.40;99.90;;;;;;5010449;28;20232;-80
2022/04/28 02:36:31;;;;;;;10.80;5.97;;;15.50;99.90;;;;;;5009932;28;20204;-81
2022/04/28 02:38:58;;;;;;;5.72;5.03;;;15.50;99.90;;;;;;5010074;28;20291;-80
2022/04/28 02:41:25;;;;;;;5.53;4.55;;;15.40;99.90;;;;;;5010114;28;20291;-79
2022/04/28 02:43:54;;;;;;;6.95;5.32;;;15.40;99.90;;;;;;5009799;28;20299;-80
2022/04/28 02:46:21;;;;;;;4.25;3.85;;;15.40;99.90;;;;;;5009610;28;20323;-80
2022/04/28 02:48:49;;;;;;;10.40;4.38;;;15.40;99.90;;;;;;5009739;28;20291;-80
2022/04/28 02:51:16;;;;;;;4.97;4.50;;;15.40;99.90;;;;;;5010057;28;20231;-78
2022/04/28 02:53:43;;;;;;;4.90;4.18;;;15.40;99.90;;;;;;5010627;28;20238;-78
2022/04/28 02:56:11;;;;;;;3.80;3.45;;;15.40;99.90;;;;;;5014338;28;20287;-78
2022/04/28 02:58:38;;;;;;;5.03;4.10;;;15.50;99.90;;;;;;5013116;28;20214;-80
2022/04/28 03:01:06;;;;;;;7.82;3.70;;;15.50;99.90;;;;;;5013339;28;20292;-81
2022/04/28 03:03:34;;;;;;;3.85;3.55;;;15.40;99.90;;;;;;5013327;28;20204;-80
2022/04/28 03:11:32;;;;;;;5.10;4.07;;;15.40;99.90;;;;;;5013902;28;20200;-80
2022/04/28 03:13:59;;;;;;;6.75;4.32;;;15.50;99.90;;;;;;5013992;28;20239;-81
2022/04/28 03:16:28;;;;;;;3.42;3.13;;;15.50;99.90;;;;;;5013764;28;20200;-80
2022/04/28 03:18:55;;;;;;;4.18;3.78;;;15.40;99.90;;;;;;5013762;28;20303;-80
2022/04/28 03:21:23;;;;;;;7.10;4.13;;;15.50;99.90;;;;;;5005374;28;20208;-82
2022/04/28 03:23:50;;;;;;;7.95;3.60;;;15.50;99.90;;;;;;5014271;28;20573;-83
2022/04/28 03:26:18;;;;;;;8.95;3.63;;;15.40;99.90;;;;;;5013297;28;20204;-82
2022/04/28 03:28:45;;;;;;;4.15;3.85;;;15.40;99.90;;;;;;5012846;28;20599;-77
2022/04/28 03:31:12;;;;;;;4.38;2.95;;;15.40;99.90;;;;;;5013302;28;20205;-77
2022/04/28 03:33:41;;;;;;;4.43;3.67;;;15.40;99.90;;;;;;5013179;28;20319;-77
2022/04/28 03:36:50;;;;;;;7.85;3.13;;;15.40;99.90;;;;;;5013448;28;20207;-77
2022/04/28 03:38:55;;;;;;;5.47;3.88;;;15.50;99.90;;;;;;5013221;28;20200;-82
2022/04/28 03:41:22;;;;;;;4.45;3.53;;;15.50;99.90;;;;;;5012416;28;20291;-82
2022/04/28 03:43:50;;;;;;;6.25;3.92;;;15.50;99.90;;;;;;5013412;28;20214;-86
2022/04/28 03:46:18;;;;;;;5.10;4.38;;;15.50;99.90;;;;;;5012844;28;20633;-77
2022/04/28 03:48:48;;;;;;;5.43;4.07;;;15.40;99.90;;;;;;5012833;28;20208;-78
2022/04/28 03:51:16;;;;;;;5.95;3.97;;;15.40;99.90;;;;;;5012516;28;20211;-78
2022/04/28 03:53:43;;;;;;;7.38;4.78;;;15.30;99.90;;;;;;5008338;28;20224;-86
2022/04/28 03:56:10;;;;;;;4.57;4.20;;;15.20;99.90;;;;;;5010099;28;20210;-81
2022/04/28 03:58:37;;;;;;;4.75;4.28;;;15.00;99.90;;;;;;5008521;28;20208;-80
2022/04/28 04:01:05;;;;;;;6.22;4.57;;;14.90;99.90;;;;;;5009122;28;20211;-79
2022/04/28 04:03:32;;;;;;;6.65;4.30;;;15.00;99.90;;;;;;5008533;28;20220;-80
2022/04/28 04:06:00;;;;;;;6.30;4.30;;;15.00;99.90;;;;;;5011959;28;20204;-78
2022/04/28 04:08:28;;;;;;;8.98;4.05;;;15.00;99.90;;;;;;5011984;28;20218;-76
2022/04/28 04:10:55;;;;;;;8.38;4.45;;;15.10;99.90;;;;;;5012217;28;20672;-78
2022/04/28 04:13:23;;;;;;;4.72;4.28;;;15.10;99.90;;;;;;5011818;28;20574;-80
2022/04/28 04:15:51;;;;;;;5.00;4.50;;;15.20;99.90;;;;;;5012534;28;20208;-79
2022/04/28 04:18:18;;;;;;;5.18;4.68;;;15.20;99.90;;;;;;5011994;28;20231;-79
2022/04/28 04:20:45;;;;;;;6.05;4.63;;;15.20;99.90;;;;;;5004371;28;20200;-78
2022/04/28 04:23:14;;;;;;;5.57;4.10;;;15.20;99.90;;;;;;5012655;28;20645;-80
2022/04/28 04:25:41;;;;;;;5.70;5.20;;;15.10;99.90;;;;;;5012247;28;20294;-79
2022/04/28 04:28:08;;;;;;;8.60;4.60;;;15.10;99.90;;;;;;5012370;28;20200;-80
2022/04/28 04:33:20;;;;;;;6.03;4.43;;;15.10;99.90;;;;;;5011512;28;20258;-81
2022/04/28 04:35:48;;;;;;;8.55;4.70;;;15.10;99.90;;;;;;5011582;28;20208;-81
2022/04/28 04:38:16;;;;;;;8.00;4.65;;;15.10;99.90;;;;;;5012090;28;20211;-80
2022/04/28 04:40:43;;;;;;;9.80;4.95;;;15.10;99.90;;;;;;5011455;28;20215;-78
2022/04/28 04:43:13;;;;;;;5.45;4.75;;;15.10;99.90;;;;;;5011825;28;20200;-79
2022/04/28 04:45:42;;;;;;;5.40;4.90;;;15.10;99.90;;;;;;5011405;28;20211;-80
2022/04/28 04:48:10;;;;;;;10.68;6.50;;;15.10;99.90;;;;;;5006589;28;20201;-80
2022/04/28 04:50:38;;;;;;;5.47;4.45;;;15.10;99.90;;;;;;5007878;28;20208;-80
2022/04/28 04:53:05;;;;;;;5.15;4.65;;;15.10;99.90;;;;;;5012005;28;20222;-80
2022/04/28 04:55:36;;;;;;;6.22;4.68;;;15.10;99.90;;;;;;5011435;28;20232;-83
2022/04/28 04:58:03;;;;;;;5.65;4.55;;;15.10;99.90;;;;;;5004186;28;20675;-80
2022/04/28 05:00:30;;;;;;;5.85;4.70;;;15.10;99.90;;;;;;5011286;28;20634;-80
2022/04/28 05:02:57;;;;;;;5.97;4.70;;;15.20;99.90;;;;;;5011782;28;20282;-81
2022/04/28 05:05:24;;;;;;;8.60;4.97;;;15.20;99.90;;;;;;5010699;28;20299;-79
2022/04/28 05:07:51;;;;;;;8.73;4.60;;;15.20;99.90;;;;;;5010696;28;20220;-80
2022/04/28 05:10:18;;;;;;;6.68;5.05;;;15.30;99.90;;;;;;5011160;28;20213;-80
2022/04/28 05:12:47;;;;;;;8.35;4.53;;;15.30;99.90;;;;;;5011126;28;20263;-79
2022/04/28 05:15:14;;;;;;;5.53;4.85;;;15.20;99.90;;;;;;5011175;28;20255;-78
2022/04/28 05:17:41;;;;;;;11.43;4.68;;;15.20;99.90;;;;;;5010286;28;20757;-79
2022/04/28 05:20:09;;;;;;;9.55;5.63;;;15.30;99.90;;;;;;5010907;28;20906;-81
2022/04/28 05:22:36;;;;;;;6.18;5.55;;;15.20;99.90;;;;;;5010984;28;20259;-77
2022/04/28 05:25:03;;;;;;;7.00;5.43;;;15.10;99.90;;;;;;5010802;28;20562;-79
2022/04/28 05:27:30;;;;;;;11.88;6.38;;;15.10;99.90;;;;;;5010493;28;20200;-78
2022/04/28 05:29:58;;;;;;;6.15;5.55;;;15.20;99.90;;;;;;5011274;28;20212;-82
2022/04/28 05:32:25;;;;;;;7.90;4.57;;;15.20;99.90;;;;;;5011105;28;20200;-80
2022/04/28 05:34:52;;;;;;;5.70;4.38;;;15.30;99.90;;;;;;5009554;28;20289;-79
2022/04/28 05:37:20;;;;;;;6.70;5.35;;;15.30;99.90;;;;;;5008982;28;20258;-77
2022/04/28 05:39:47;;;;;;;7.35;5.55;;;15.20;99.90;;;;;;5010862;28;20587;-77
2022/04/28 05:42:14;;;;;;;8.60;5.30;;;15.10;99.90;;;;;;5005783;28;20200;-75
2022/04/28 05:47:27;;;;;;;8.95;4.97;;;15.20;99.90;;;;;;5003073;28;20207;-77
2022/04/28 05:49:55;;;;;;;6.82;5.35;;;15.20;99.90;;;;;;5010028;28;20204;-79
2022/04/28 05:52:22;;;;;;;9.13;6.75;;;15.20;99.90;;;;;;5010792;28;20274;-78
2022/04/28 05:54:49;;;;;;;6.32;5.28;;;15.30;99.90;;;;;;5010915;28;20311;-74
2022/04/28 05:57:17;;;;;;;7.10;6.18;;;15.40;99.90;;;;;;5009634;28;20212;-73
2022/04/28 05:59:43;;;;;;;6.40;5.32;;;15.30;99.90;;;;;;5006743;28;20209;-74
2022/04/28 06:02:10;;;;;;;8.35;5.70;;;15.30;99.90;;;;;;5010059;28;20255;-76
2022/04/28 06:04:39;;;;;;;8.48;5.70;;;15.40;99.90;;;;;;5010088;28;20204;-77
2022/04/28 06:07:06;;;;;;;8.65;5.72;;;15.40;99.90;;;;;;5010091;28;20243;-78
2022/04/28 06:09:33;;;;;;;8.48;6.15;;;15.50;99.90;;;;;;5009502;28;21132;-74
2022/04/28 06:12:01;;;;;;;10.38;6.53;;;15.50;99.90;;;;;;5010600;28;20208;-74
2022/04/28 06:14:28;;;;;;;6.57;5.78;;;15.50;99.90;;;;;;5008765;28;20228;-74
2022/04/28 06:16:55;;;;;;;5.55;5.05;;;15.60;99.90;;;;;;5008339;28;20407;-74
2022/04/28 06:19:23;;;;;;;6.63;4.68;;;15.60;99.90;;;;;;5009784;28;20274;-76
2022/04/28 06:21:52;;;;;;;7.43;5.47;;;15.50;99.90;;;;;;5010074;28;20211;-77
2022/04/28 06:24:19;;;;;;;10.15;6.15;;;15.40;99.90;;;;;;5010492;28;20204;-76
2022/04/28 06:26:46;;;;;;;5.13;4.63;;;15.40;99.90;;;;;;5005301;28;20323;-76
2022/04/28 06:29:13;;;;;;;16.50;5.25;;;15.40;99.90;;;;;;5011952;28;20200;-75
2022/04/28 06:31:40;;;;;;;5.82;4.30;;;15.50;99.90;;;;;;5013723;28;20252;-75
2022/04/28 06:34:06;;;;;;;7.68;5.22;;;15.40;99.90;;;;;;5005401;28;20208;-75
2022/04/28 06:36:34;;;;;;;5.75;5.25;;;15.30;99.90;;;;;;4998844;28;20216;-74
2022/04/28 06:39:03;;;;;;;4.35;3.70;;;15.30;99.90;;;;;;5002240;28;20208;-75
2022/04/28 06:41:30;;;;;;;5.18;4.53;;;15.30;99.90;;;;;;5011825;28;20208;-75
2022/04/28 06:43:57;;;;;;;7.82;4.40;;;15.30;99.90;;;;;;5013203;28;20609;-76
2022/04/28 06:46:24;;;;;;;5.03;4.18;;;15.30;99.90;;;;;;5013826;28;20204;-76
2022/04/28 06:48:51;;;;;;;5.38;3.72;;;15.20;99.90;;;;;;5013569;28;20204;-75
2022/04/28 06:51:18;;;;;;;4.28;3.65;;;15.20;99.90;;;;;;5013154;28;20204;-74
2022/04/28 06:53:45;;;;;;;7.80;4.00;;;15.20;99.90;;;;;;5013598;28;20208;-74
2022/04/28 06:56:14;;;;;;;4.13;3.50;;;15.20;99.90;;;;;;5011753;28;20231;-75
2022/04/28 06:58:41;;;;;;;4.88;3.88;;;15.20;99.90;;;;;;5004461;28;20204;-75
2022/04/28 07:01:08;;;;;;;5.78;4.28;;;15.20;99.90;;;;;;5013395;28;20208;-74
2022/04/28 07:03:35;;;;;;;7.40;4.50;;;15.10;99.90;;;;;;5012779;28;20247;-75
2022/04/28 07:06:02;;;;;;;10.02;4.13;;;15.20;99.90;;;;;;5013415;28;20258;-74
2022/04/28 07:08:30;;;;;;;4.25;3.85;;;15.20;99.90;;;;;;5012350;28;20216;-74
2022/04/28 07:10:58;;;;;;;4.60;4.20;;;15.30;99.90;;;;;;5013252;28;20216;-74
2022/04/28 07:13:26;;;;;;;6.32;3.92;;;15.30;99.90;;;;;;5013014;28;20765;-74
2022/04/28 07:15:53;;;;;;;6.75;5.22;;;15.30;99.90;;;;;;5013053;28;20664;-74
2022/04/28 07:18:20;;;;;;;5.45;4.95;;;15.30;99.90;;;;;;5012370;28;20622;-75
2022/04/28 07:20:47;;;;;;;4.50;4.10;;;15.40;99.90;;;;;;5013203;28;20213;-74
2022/04/28 07:23:16;;;;;;;4.93;4.43;;;15.40;99.90;;;;;;5013196;28;20208;-74
2022/04/28 07:25:43;;;;;;;4.82;4.25;;;15.40;99.90;;;;;;5005215;28;20263;-73
2022/04/28 07:28:10;;;;;;;9.95;4.90;;;15.50;99.90;;;;;;5012767;28;20259;-75
2022/04/28 07:30:38;;;;;;;4.30;3.92;;;15.70;99.90;;;;;;5012425;28;20212;-75
2022/04/28 07:33:07;;;;;;;5.32;4.43;;;15.60;99.90;;;;;;5012041;28;20200;-75
2022/04/28 07:35:34;;;;;;;8.13;5.10;;;15.50;99.90;;;;;;5012781;28;20323;-75
2022/04/28 07:38:01;;;;;;;8.38;4.40;;;15.50;99.90;;;;;;5012066;28;20208;-74
2022/04/28 07:40:29;;;;;;;6.10;4.95;;;15.50;99.90;;;;;;5009946;28;20212;-74
2022/04/28 07:42:56;;;;;;;4.72;4.32;;;15.40;99.90;;;;;;5010645;28;20200;-74
2022/04/28 07:45:24;;;;;;;5.50;5.00;;;15.40;99.90;;;;;;5007941;28;20211;-73
2022/04/28 07:47:52;;;;;;;5.97;5.30;;;15.30;99.90;;;;;;5011589;28;20203;-73
2022/04/28 07:50:19;;;;;;;5.47;4.85;;;15.30;99.90;;;;;;5012283;28;20278;-73
2022/04/28 07:52:46;;;;;;;6.43;4.93;;;15.30;99.90;;;;;;5009896;28;20208;-73
2022/04/28 07:55:14;;;;;;;5.20;4.53;;;15.40;99.90;;;;;;5007049;28;20236;-74
2022/04/28 07:57:42;;;;;;;6.30;4.82;;;15.50;99.90;;;;;;5005422;28;20215;-73
2022/04/28 08:00:10;;;;;;;6.13;4.82;;;15.70;99.90;;;;;;5004826;28;20247;-73
2022/04/28 08:02:37;;;;;;;8.23;5.47;;;16.00;99.90;;;;;;5006312;28;20271;-74
2022/04/28 08:05:08;;;;;;;5.47;4.97;;;16.20;99.90;;;;;;5010583;28;20216;-75
2022/04/28 08:07:35;;;;;;;8.27;5.03;;;16.20;99.90;;;;;;5006026;28;20667;-74
2022/04/28 08:10:03;;;;;;;8.35;5.05;;;16.00;99.90;;;;;;5011924;28;20212;-75
2022/04/28 08:12:31;;;;;;;8.32;5.22;;;15.80;99.90;;;;;;5008961;28;20287;-73
2022/04/28 08:14:58;;;;;;;6.45;5.20;;;16.00;99.90;;;;;;5008690;28;20731;-74
2022/04/28 08:17:26;;;;;;;5.50;4.80;;;16.00;99.90;;;;;;5017058;28;20256;-74
2022/04/28 08:19:53;;;;;;;7.10;5.30;;;16.00;99.90;;;;;;5009374;28;20205;-75
2022/04/28 08:22:21;;;;;;;13.57;5.43;;;16.00;99.90;;;;;;5010454;28;20259;-74
2022/04/28 08:24:48;;;;;;;7.03;5.38;;;15.90;99.90;;;;;;5011307;28;20204;-75
2022/04/28 08:27:15;;;;;;;6.53;5.72;;;15.90;99.90;;;;;;5011113;28;20204;-74
2022/04/28 08:29:42;;;;;;;8.15;5.85;;;15.80;99.90;;;;;;5012067;28;20208;-74
2022/04/28 08:32:09;;;;;;;5.47;4.90;;;15.80;99.90;;;;;;5008654;28;20201;-75
2022/04/28 08:34:37;;;;;;;7.70;5.18;;;15.90;99.90;;;;;;5011488;28;20946;-74
2022/04/28 08:37:04;;;;;;;7.82;6.32;;;16.10;99.90;;;;;;5011837;28;20573;-72
2022/04/28 08:39:32;;;;;;;7.10;5.32;;;16.10;99.90;;;;;;5011399;28;20676;-74
2022/04/28 08:42:00;;;;;;;8.52;5.78;;;15.90;99.90;;;;;;5012196;28;20200;-73
2022/04/28 08:44:29;;;;;;;6.75;5.40;;;16.20;99.90;;;;;;5011303;28;20208;-75
2022/04/28 08:46:58;;;;;;;4.80;4.40;;;16.40;99.90;;;;;;5011731;28;20208;-75
2022/04/28 08:49:29;;;;;;;8.77;6.13;;;16.60;99.90;;;;;;5010882;28;20208;-75
2022/04/28 08:51:57;;;;;;;7.13;5.78;;;16.70;99.90;;;;;;5009754;28;20741;-74
2022/04/28 08:54:26;;;;;;;6.63;5.50;;;16.50;99.90;;;;;;5006678;28;20204;-75
2022/04/28 08:56:58;;;;;;;7.53;4.80;;;16.40;99.90;;;;;;5011534;28;20696;-74
2022/04/28 08:59:26;;;;;;;10.88;6.63;;;16.40;99.90;;;;;;5010805;28;20204;-73
2022/04/28 09:01:53;;;;;;;7.32;5.50;;;16.40;99.90;;;;;;5011191;28;20270;-75
2022/04/28 09:04:21;;;;;;;11.10;6.50;;;16.40;99.90;;;;;;5010576;28;20208;-74
2022/04/28 09:06:52;;;;;;;8.95;6.43;;;16.50;99.90;;;;;;5010926;28;20230;-75
2022/04/28 09:09:20;;;;;;;6.35;5.50;;;16.40;99.90;;;;;;5010709;28;20212;-74
2022/04/28 09:11:49;;;;;;;7.00;5.35;;;16.30;99.90;;;;;;5007409;28;20243;-76
2022/04/28 09:14:18;;;;;;;7.68;5.53;;;16.40;99.90;;;;;;5008137;28;20579;-72
2022/04/28 09:16:47;;;;;;;6.93;6.22;;;16.40;99.90;;;;;;5011055;28;20227;-75
2022/04/28 09:19:22;;;;;;;9.05;7.03;;;16.50;99.90;;;;;;5003014;28;20259;-75
2022/04/28 09:21:52;;;;;;;10.88;6.50;;;16.40;99.90;;;;;;5009234;28;20206;-75
2022/04/28 09:24:20;;;;;;;9.95;7.15;;;16.50;99.90;;;;;;5008258;28;20200;-74
2022/04/28 09:26:50;;;;;;;10.70;6.00;;;16.60;99.90;;;;;;5008452;28;20212;-73
2022/04/28 09:29:19;;;;;;;9.80;6.45;;;16.60;99.90;;;;;;5009241;28;20231;-73
2022/04/28 09:31:47;;;;;;;7.82;6.28;;;16.60;99.90;;;;;;5010836;28;20200;-73
2022/04/28 09:34:16;;;;;;;7.28;6.57;;;16.50;99.90;;;;;;5010654;28;20203;-74
2022/04/28 09:36:47;;;;;;;7.75;6.97;;;16.40;99.90;;;;;;5007666;28;20309;-73
2022/04/28 09:42:29;;;;;;;8.52;7.03;;;16.30;99.90;;;;;;5010761;28;20679;-76
2022/04/28 09:44:49;;;;;;;7.68;6.57;;;16.20;99.90;;;;;;5010587;28;20204;-75
2022/04/28 09:47:17;;;;;;;7.47;6.50;;;16.20;99.90;;;;;;5010100;28;20208;-75
2022/04/28 09:49:50;;;;;;;7.55;6.28;;;16.20;99.90;;;;;;5010515;28;20258;-73
2022/04/28 09:52:17;;;;;;;9.15;6.75;;;16.30;99.90;;;;;;5010061;28;20204;-74
2022/04/28 09:54:45;;;;;;;9.20;6.70;;;16.30;99.90;;;;;;5010457;28;20307;-74
2022/04/28 09:57:13;;;;;;;9.50;6.40;;;16.30;99.90;;;;;;5010820;28;20235;-73
2022/04/28 09:59:41;;;;;;;9.32;6.97;;;16.30;99.90;;;;;;5006669;28;20215;-73
2022/04/28 10:02:14;;;;;;;11.15;7.03;;;16.20;99.90;;;;;;5010558;28;20200;-75
2022/04/28 10:04:42;;;;;;;7.80;6.05;;;16.10;99.90;;;;;;5001804;28;20263;-73
2022/04/28 10:07:09;;;;;;;8.50;6.22;;;16.20;99.90;;;;;;5004866;28;20220;-72
2022/04/28 10:09:37;;;;;;;9.65;7.65;;;16.20;99.90;;;;;;5007563;28;20734;-71
2022/04/28 10:12:06;;;;;;;12.48;7.50;;;16.20;99.90;;;;;;5009765;28;20215;-72
2022/04/28 10:14:35;;;;;;;9.60;7.97;;;16.10;99.90;;;;;;5009561;28;20580;-71
2022/04/28 10:17:04;;;;;;;10.35;6.95;;;16.20;99.90;;;;;;5010039;28;20227;-71
2022/04/28 10:19:37;;;;;;;10.30;7.38;;;16.10;99.90;;;;;;5009112;28;20259;-71
2022/04/28 10:22:07;;;;;;;10.45;8.15;;;16.20;99.90;;;;;;5010132;28;20208;-70
2022/04/28 10:32:57;;;;;;;7.90;6.43;;;16.40;99.90;;;;;;5010023;28;20821;-71
2022/04/28 10:35:41;;;;;;;12.20;7.32;;;16.40;99.90;;;;;;5009904;28;20212;-71
2022/04/28 10:38:14;;;;;;;7.35;6.57;;;16.50;99.90;;;;;;5003547;28;20208;-71
2022/04/28 10:40:43;;;;;;;9.77;8.15;;;16.50;99.90;;;;;;5007666;28;20204;-72
2022/04/28 10:43:24;;;;;;;11.15;8.02;;;16.50;99.90;;;;;;5010322;28;20201;-73
2022/04/28 10:45:54;;;;;;;9.80;6.18;;;16.60;99.90;;;;;;5009839;28;20218;-72
2022/04/28 10:51:15;;;;;;;7.97;6.88;;;16.70;99.90;;;;;;5006984;28;20773;-71
2022/04/28 10:54:00;;;;;;;8.65;7.75;;;16.80;99.90;;;;;;5010577;28;20204;-71
2022/04/28 10:56:28;;;;;;;9.65;6.53;;;16.80;99.90;;;;;;5009226;28;20710;-71
2022/04/28 10:59:21;;;;;;;11.35;7.18;;;17.00;99.90;;;;;;5002155;28;20208;-71
2022/04/28 11:01:48;;;;;;;8.43;7.63;;;17.30;99.90;;;;;;5009296;28;20208;-71
2022/04/28 11:04:21;;;;;;;13.00;7.93;;;17.60;99.90;;;;;;5006619;28;20204;-70
2022/04/28 11:06:55;;;;;;;14.82;7.85;;;17.70;99.90;;;;;;5007858;28;20224;-76
2022/04/28 11:09:33;;;;;;;12.82;7.00;;;17.70;99.90;;;;;;5009112;28;20672;-72
2022/04/28 11:12:11;;;;;;;6.88;6.28;;;17.70;99.90;;;;;;5009374;28;20211;-73
2022/04/28 11:14:45;;;;;;;8.27;7.47;;;17.80;99.90;;;;;;5009758;28;20212;-71
2022/04/28 11:17:13;;;;;;;12.18;6.97;;;17.70;99.90;;;;;;5005138;28;20250;-73
2022/04/28 11:19:41;;;;;;;8.90;7.70;;;17.60;99.90;;;;;;5012852;28;20209;-74
2022/04/28 11:22:11;;;;;;;10.95;7.07;;;17.60;99.90;;;;;;5013121;28;20291;-70
2022/04/28 11:24:41;;;;;;;10.52;6.78;;;17.50;99.90;;;;;;5012639;28;20204;-70
2022/04/28 11:27:08;;;;;;;9.02;6.43;;;17.40;99.90;;;;;;5013345;28;20215;-73
2022/04/28 11:29:39;;;;;;;11.30;8.45;;;17.30;99.90;;;;;;5012873;28;20577;-71
2022/04/28 11:32:09;;;;;;;8.55;6.68;;;17.30;99.90;;;;;;5012923;28;20231;-75
2022/04/28 11:34:36;;;;;;;10.00;6.80;;;17.30;99.90;;;;;;5012909;28;20213;-72
2022/04/28 11:37:14;;;;;;;8.27;7.45;;;17.40;99.90;;;;;;5012571;28;20286;-71
2022/04/28 11:39:43;;;;;;;7.75;6.13;;;17.40;99.90;;;;;;5011594;28;20211;-71
2022/04/28 11:42:12;;;;;;;8.10;6.53;;;17.70;99.90;;;;;;5012025;28;20208;-70
2022/04/28 11:44:45;;;;;;;12.27;7.25;;;17.90;99.90;;;;;;5012643;28;20211;-79
2022/04/28 11:47:13;;;;;;;7.20;6.53;;;18.10;99.90;;;;;;5011119;28;20299;-77
2022/04/28 11:49:40;;;;;;;7.85;6.90;;;18.00;99.90;;;;;;5007832;28;20601;-77
2022/04/28 11:52:23;;;;;;;7.70;6.95;;;18.30;99.90;;;;;;5012574;28;20268;-79
2022/04/28 11:54:58;;;;;;;8.98;6.25;;;18.30;99.90;;;;;;5006200;28;20212;-71
2022/04/28 11:57:25;;;;;;;8.38;7.20;;;18.60;99.90;;;;;;5007038;28;20642;-74
2022/04/28 11:59:52;;;;;;;9.93;6.30;;;18.70;99.90;;;;;;5012266;28;20254;-70
2022/04/28 12:02:28;;;;;;;9.15;7.15;;;18.90;99.90;;;;;;5011387;28;20667;-70
2022/04/28 12:04:55;;;;;;;8.00;7.20;;;18.90;99.90;;;;;;5007708;28;20689;-70
2022/04/28 12:07:28;;;;;;;8.23;6.65;;;18.90;99.90;;;;;;5011526;28;20738;-69
2022/04/28 12:15:25;;;;;;;10.13;6.88;;;18.00;99.90;;;;;;5011365;28;20266;-71
2022/04/28 12:20:52;;;;;;;6.85;5.78;;;17.90;99.90;;;;;;5010611;28;20290;-71
2022/04/28 12:23:34;;;;;;;13.00;8.02;;;17.90;99.90;;;;;;5007541;28;20243;-71
2022/04/28 12:26:03;;;;;;;8.80;7.43;;;17.80;99.90;;;;;;5008252;28;20254;-72
2022/04/28 12:28:31;;;;;;;9.60;7.55;;;17.80;99.90;;;;;;5010641;28;20247;-71
2022/04/28 12:30:59;;;;;;;7.95;6.60;;;17.90;99.90;;;;;;5011746;28;20628;-71
2022/04/28 12:33:28;;;;;;;6.90;6.20;;;17.90;99.90;;;;;;5011402;28;20281;-70
2022/04/28 12:35:59;;;;;;;9.55;7.68;;;17.90;99.90;;;;;;5011066;28;20208;-71
2022/04/28 12:38:27;;;;;;;7.03;6.35;;;17.90;99.90;;;;;;5010837;28;20743;-73
2022/04/28 12:40:56;;;;;;;8.25;7.00;;;17.80;99.90;;;;;;5011443;28;20203;-70
2022/04/28 12:43:37;;;;;;;11.57;7.80;;;17.80;99.90;;;;;;5011073;28;20279;-72
2022/04/28 12:46:05;;;;;;;8.32;7.13;;;17.70;99.90;;;;;;5011793;28;20218;-70
2022/04/28 12:48:34;;;;;;;10.13;7.25;;;17.70;99.90;;;;;;5010916;28;20212;-71
2022/04/28 12:51:15;;;;;;;7.82;6.82;;;17.80;99.90;;;;;;5011588;28;20294;-71
2022/04/28 12:53:44;;;;;;;11.45;8.18;;;17.70;99.90;;;;;;5011921;28;20204;-71
2022/04/28 12:56:14;;;;;;;9.18;8.10;;;17.80;99.90;;;;;;5011657;28;20274;-71
2022/04/28 12:58:43;;;;;;;9.85;7.88;;;17.70;99.90;;;;;;5004286;28;20207;-71
2022/04/28 13:01:12;;;;;;;8.35;7.55;;;17.70;99.90;;;;;;5011652;28;20208;-71
2022/04/28 13:03:40;;;;;;;15.20;7.32;;;17.60;99.90;;;;;;5003159;28;20204;-71
2022/04/28 13:06:08;;;;;;;11.93;8.45;;;17.60;99.90;;;;;;5011335;28;20207;-71
2022/04/28 13:08:35;;;;;;;10.52;7.70;;;17.60;99.90;;;;;;5010354;28;20223;-71
2022/04/28 13:11:03;;;;;;;10.57;7.10;;;17.60;99.90;;;;;;5009527;28;20416;-71
2022/04/28 13:13:32;;;;;;;10.80;9.48;;;17.60;99.90;;;;;;5009759;28;20208;-71
2022/04/28 13:15:59;;;;;;;9.32;8.10;;;17.80;99.90;;;;;;5010913;28;20645;-73
2022/04/28 13:18:26;;;;;;;11.85;8.27;;;17.80;99.90;;;;;;5010613;28;20636;-71
2022/04/28 13:20:53;;;;;;;9.57;7.82;;;17.80;99.90;;;;;;5010840;28;20660;-71
2022/04/28 13:23:21;;;;;;;10.30;9.10;;;17.80;99.90;;;;;;5010408;28;20204;-72
2022/04/28 13:25:48;;;;;;;9.82;7.82;;;17.70;99.90;;;;;;5009504;28;20204;-72
2022/04/28 13:28:16;;;;;;;14.00;7.75;;;17.70;99.90;;;;;;5010283;28;20211;-71
2022/04/28 13:30:44;;;;;;;9.10;7.50;;;17.70;99.90;;;;;;5010567;28;20264;-71
2022/04/28 13:33:11;;;;;;;9.80;7.93;;;17.50;99.90;;;;;;5011226;28;20247;-71